createdAt,value
2023-08-07T00:00:29.319Z,16
2023-08-07T00:02:26.444Z,18
2023-08-07T00:04:23.638Z,21
2023-08-07T00:06:20.755Z,21
2023-08-07T00:08:17.760Z,18
2023-08-07T00:10:14.791Z,19
2023-08-07T00:12:11.942Z,17
2023-08-07T00:14:09.252Z,19
2023-08-07T00:16:06.661Z,15
2023-08-07T00:18:03.957Z,13
2023-08-07T00:20:01.032Z,17
2023-08-07T00:21:58.346Z,19
2023-08-07T00:23:55.597Z,14
2023-08-07T00:25:52.834Z,15
2023-08-07T00:27:49.928Z,16
2023-08-07T00:29:47.082Z,17
2023-08-07T00:31:44.609Z,15
2023-08-07T00:33:41.825Z,18
2023-08-07T00:35:39.000Z,15
2023-08-07T00:37:36.019Z,15
2023-08-07T00:39:33.145Z,17
2023-08-07T00:41:30.260Z,15
2023-08-07T00:43:27.302Z,14
2023-08-07T00:45:24.406Z,14
2023-08-07T00:47:21.453Z,16
2023-08-07T00:49:18.793Z,16
2023-08-07T00:51:15.863Z,16
2023-08-07T00:53:12.981Z,14
2023-08-07T00:55:10.076Z,16
2023-08-07T00:57:07.048Z,17
2023-08-07T00:59:04.176Z,15
2023-08-07T01:01:01.442Z,18
2023-08-07T01:02:59.023Z,15
2023-08-07T01:04:56.329Z,13
2023-08-07T01:06:53.692Z,16
2023-08-07T01:08:51.076Z,13
2023-08-07T01:10:48.134Z,15
2023-08-07T01:12:45.164Z,28
2023-08-07T01:14:42.258Z,14
2023-08-07T01:16:39.353Z,14
2023-08-07T01:18:36.862Z,15
2023-08-07T01:20:33.849Z,14
2023-08-07T01:22:31.017Z,12
2023-08-07T01:24:28.206Z,11
2023-08-07T01:26:25.488Z,16
2023-08-07T01:28:23.657Z,17
2023-08-07T01:30:20.788Z,16
2023-08-07T01:32:18.105Z,9
2023-08-07T01:34:15.470Z,14
2023-08-07T01:36:12.661Z,15
2023-08-07T01:38:09.740Z,12
2023-08-07T01:40:06.948Z,13
2023-08-07T01:42:04.043Z,13
2023-08-07T01:44:01.171Z,14
2023-08-07T01:45:58.248Z,15
2023-08-07T01:47:55.551Z,14
2023-08-07T01:49:56.030Z,13
2023-08-07T01:51:53.151Z,11
2023-08-07T01:53:50.275Z,12
2023-08-07T01:55:47.508Z,11
2023-08-07T01:57:44.691Z,14
2023-08-07T01:59:41.689Z,12
2023-08-07T02:01:38.692Z,5
2023-08-07T02:03:35.932Z,13
2023-08-07T02:05:33.174Z,13
2023-08-07T02:07:30.276Z,12
2023-08-07T02:09:27.400Z,11
2023-08-07T02:11:24.562Z,8
2023-08-07T02:13:21.731Z,11
2023-08-07T02:15:18.814Z,9
2023-08-07T02:17:15.752Z,11
2023-08-07T02:19:12.764Z,10
2023-08-07T02:21:09.933Z,5
2023-08-07T02:23:07.191Z,11
2023-08-07T02:25:04.304Z,11
2023-08-07T02:27:01.429Z,9
2023-08-07T02:28:58.522Z,6
2023-08-07T02:30:55.626Z,10
2023-08-07T02:32:53.053Z,10
2023-08-07T02:34:50.275Z,13
2023-08-07T02:36:47.260Z,10
2023-08-07T02:38:44.306Z,7
2023-08-07T02:40:41.476Z,9
2023-08-07T02:42:38.642Z,7
2023-08-07T02:44:35.760Z,9
2023-08-07T02:46:32.837Z,9
2023-08-07T02:48:29.782Z,10
2023-08-07T02:50:26.715Z,10
2023-08-07T02:52:23.758Z,7
2023-08-07T02:54:20.857Z,9
2023-08-07T02:56:17.981Z,9
2023-08-07T02:58:15.098Z,6
2023-08-07T03:00:11.989Z,9
2023-08-07T03:02:09.151Z,9
2023-08-07T03:04:06.438Z,31
2023-08-07T03:06:03.576Z,8
2023-08-07T03:08:00.747Z,5
2023-08-07T03:09:57.719Z,10
2023-08-07T03:11:55.961Z,6
2023-08-07T03:13:53.141Z,14
2023-08-07T03:15:50.044Z,32
2023-08-07T03:17:47.243Z,8
2023-08-07T03:19:44.454Z,10
2023-08-07T03:21:41.539Z,5
2023-08-07T03:23:38.620Z,9
2023-08-07T03:25:35.652Z,18
2023-08-07T03:27:48.654Z,10
2023-08-07T03:29:46.371Z,10
2023-08-07T03:31:43.658Z,12
2023-08-07T03:33:40.887Z,12
2023-08-07T03:35:37.874Z,10
2023-08-07T03:37:34.772Z,13
2023-08-07T03:39:31.957Z,10
2023-08-07T03:41:29.237Z,15
2023-08-07T03:43:26.287Z,16
2023-08-07T03:45:23.530Z,16
2023-08-07T03:47:20.852Z,23
2023-08-07T03:49:18.175Z,24
2023-08-07T03:51:15.346Z,23
2023-08-07T03:53:12.392Z,24
2023-08-07T03:55:09.598Z,23
2023-08-07T03:57:06.743Z,37
2023-08-07T03:59:03.868Z,32
2023-08-07T04:01:01.106Z,26
2023-08-07T04:02:58.439Z,25
2023-08-07T04:04:55.497Z,39
2023-08-07T04:06:52.622Z,39
2023-08-07T04:08:49.720Z,46
2023-08-07T04:10:46.804Z,49
2023-08-07T04:12:43.988Z,63
2023-08-07T04:14:41.029Z,65
2023-08-07T04:16:38.097Z,67
2023-08-07T04:18:35.145Z,72
2023-08-07T04:20:32.117Z,83
2023-08-07T04:22:29.225Z,101
2023-08-07T04:24:26.436Z,104
2023-08-07T04:26:23.464Z,108
2023-08-07T04:28:20.427Z,107
2023-08-07T04:30:17.537Z,113
2023-08-07T04:32:14.856Z,105
2023-08-07T04:34:12.048Z,109
2023-08-07T04:36:09.194Z,115
2023-08-07T04:38:06.398Z,102
2023-08-07T16:57:55.247Z,507
2023-08-07T16:59:52.771Z,492
2023-08-07T17:01:50.431Z,493
2023-08-07T17:03:48.042Z,433
2023-08-07T17:05:45.132Z,475
2023-08-07T17:07:42.330Z,447
2023-08-07T17:09:39.676Z,483
2023-08-07T17:11:37.226Z,435
2023-08-07T17:13:34.604Z,423
2023-08-07T17:15:31.926Z,431
2023-08-07T17:17:29.251Z,431
2023-08-07T17:19:26.889Z,407
2023-08-07T17:21:23.939Z,399
2023-08-07T17:23:21.341Z,391
2023-08-07T17:25:18.584Z,401
2023-08-07T17:27:16.038Z,375
2023-08-07T17:29:13.154Z,358
2023-08-07T17:31:10.593Z,370
2023-08-07T17:33:07.774Z,350
2023-08-07T17:35:04.874Z,340
2023-08-07T17:37:02.078Z,352
2023-08-07T17:39:00.819Z,394
2023-08-07T17:40:59.397Z,414
2023-08-07T17:42:56.582Z,423
2023-08-07T17:44:53.805Z,414
2023-08-07T17:46:51.251Z,402
2023-08-07T17:48:48.232Z,398
2023-08-07T17:50:46.401Z,384
2023-08-07T17:52:43.963Z,364
2023-08-07T17:54:41.057Z,357
2023-08-07T17:56:38.251Z,354
2023-08-07T17:58:35.114Z,348
2023-08-07T18:00:32.117Z,344
2023-08-07T18:02:29.512Z,340
2023-08-07T18:04:26.772Z,335
2023-08-07T18:06:23.865Z,339
2023-08-07T18:08:20.976Z,335
2023-08-07T18:10:18.077Z,335
2023-08-07T18:12:15.319Z,333
2023-08-07T18:14:12.506Z,337
2023-08-07T18:16:09.634Z,332
2023-08-07T18:18:06.893Z,328
2023-08-07T18:20:03.801Z,311
2023-08-07T18:22:00.903Z,306
2023-08-07T18:23:57.988Z,297
2023-08-07T18:25:54.855Z,293
2023-08-07T18:27:52.065Z,282
2023-08-07T18:29:49.383Z,274
2023-08-07T18:31:46.604Z,266
2023-08-07T18:33:43.829Z,258
2023-08-07T18:35:40.926Z,243
2023-08-07T18:37:38.025Z,237
2023-08-07T18:39:35.070Z,234
2023-08-07T18:41:32.102Z,227
2023-08-07T18:43:29.146Z,220
2023-08-07T18:45:26.013Z,212
2023-08-07T18:47:23.112Z,204
2023-08-07T18:49:20.439Z,200
2023-08-07T18:51:17.532Z,194
2023-08-07T18:53:16.953Z,182
2023-08-07T18:55:13.922Z,173
2023-08-07T18:57:11.173Z,159
2023-08-07T18:59:08.262Z,154
2023-08-07T19:01:05.370Z,141
2023-08-07T19:03:02.776Z,130
2023-08-07T19:05:00.243Z,115
2023-08-07T19:06:57.614Z,104
2023-08-07T19:08:54.835Z,90
2023-08-07T19:10:52.038Z,83
2023-08-07T19:12:49.073Z,75
2023-08-07T19:14:46.118Z,74
2023-08-07T19:16:43.168Z,67
2023-08-07T19:18:40.363Z,69
2023-08-07T19:20:37.632Z,57
2023-08-07T19:22:34.741Z,54
2023-08-07T19:24:31.837Z,43
2023-08-07T19:26:28.982Z,41
2023-08-07T19:28:27.395Z,39
2023-08-07T19:30:24.744Z,36
2023-08-07T19:32:35.668Z,27
2023-08-07T19:34:32.892Z,23
2023-08-07T19:36:30.167Z,24
2023-08-07T19:38:27.912Z,19
2023-08-07T19:40:24.915Z,19
2023-08-07T19:42:22.018Z,18
2023-08-07T19:44:19.077Z,15
2023-08-07T19:46:16.306Z,15
2023-08-07T19:48:13.520Z,14
2023-08-07T19:50:10.775Z,15
2023-08-07T19:52:07.897Z,13
2023-08-07T19:54:04.996Z,17
2023-08-07T19:56:02.236Z,12
2023-08-07T19:58:05.636Z,14
2023-08-07T20:00:02.679Z,14
2023-08-07T20:01:59.818Z,10
2023-08-07T20:03:57.249Z,13
2023-08-07T20:05:57.779Z,9
2023-08-07T20:07:55.052Z,16
2023-08-07T20:09:52.422Z,12
2023-08-07T20:11:49.502Z,12
2023-08-07T20:13:46.749Z,18
2023-08-07T20:15:43.622Z,12
2023-08-07T20:17:40.998Z,17
2023-08-07T20:19:38.333Z,14
2023-08-07T20:21:35.361Z,10
2023-08-07T20:23:32.537Z,11
2023-08-07T20:25:29.671Z,13
2023-08-07T20:27:26.668Z,9
2023-08-07T20:29:23.792Z,14
2023-08-07T20:31:21.106Z,11
2023-08-07T20:33:18.263Z,10
2023-08-07T20:35:15.405Z,9
2023-08-07T20:37:12.668Z,11
2023-08-07T20:39:09.904Z,14
2023-08-07T20:41:06.891Z,16
2023-08-07T20:43:03.897Z,12
2023-08-07T20:45:01.135Z,7
2023-08-07T20:46:58.345Z,13
2023-08-07T20:48:55.585Z,18
2023-08-07T20:50:52.749Z,17
2023-08-07T20:52:49.849Z,20
2023-08-07T20:54:46.966Z,14
2023-08-07T20:56:44.061Z,15
2023-08-07T20:58:41.156Z,17
2023-08-07T21:00:38.208Z,16
2023-08-07T21:02:35.417Z,8
2023-08-07T21:04:32.759Z,17
2023-08-07T21:06:29.951Z,15
2023-08-07T21:08:27.165Z,15
2023-08-07T21:10:24.213Z,17
2023-08-07T21:12:21.183Z,12
2023-08-07T21:14:18.228Z,20
2023-08-07T21:16:15.351Z,15
2023-08-07T21:18:12.849Z,15
2023-08-07T21:20:10.073Z,12
2023-08-07T21:22:07.018Z,15
2023-08-07T21:24:04.497Z,17
2023-08-07T21:26:01.617Z,16
2023-08-07T21:27:58.713Z,17
2023-08-07T21:29:55.820Z,14
2023-08-07T21:31:52.988Z,18
2023-08-07T21:33:50.046Z,15
2023-08-07T21:35:47.139Z,15
2023-08-07T21:37:44.335Z,15
2023-08-07T21:39:41.409Z,17
2023-08-07T21:41:38.498Z,19
2023-08-07T21:43:35.680Z,17
2023-08-07T21:45:32.672Z,15
2023-08-07T21:47:29.877Z,16
2023-08-07T21:49:27.168Z,14
2023-08-07T21:51:24.367Z,18
2023-08-07T21:53:21.507Z,18
2023-08-07T21:55:18.673Z,16
2023-08-07T21:57:15.848Z,21
2023-08-07T21:59:12.993Z,16
2023-08-07T22:01:10.295Z,15
2023-08-07T22:03:07.496Z,19
2023-08-07T22:05:05.048Z,8
2023-08-07T22:07:02.090Z,16
2023-08-07T22:08:59.099Z,15
2023-08-07T22:10:56.316Z,17
2023-08-07T22:12:53.477Z,17
2023-08-07T22:14:50.574Z,18
2023-08-07T22:16:47.667Z,17
2023-08-07T22:18:44.765Z,21
2023-08-07T22:20:41.656Z,18
2023-08-07T22:22:38.759Z,21
2023-08-07T22:24:35.951Z,14
2023-08-07T22:26:33.063Z,15
2023-08-07T22:28:30.290Z,10
2023-08-07T22:30:27.338Z,13
2023-08-07T22:32:24.470Z,13
2023-08-07T22:34:21.780Z,20
2023-08-07T22:36:18.876Z,16
2023-08-07T22:38:15.971Z,17
2023-08-07T22:40:13.011Z,17
2023-08-07T22:42:10.238Z,15
2023-08-07T22:44:07.395Z,16
2023-08-07T22:46:05.010Z,15
2023-08-07T22:48:02.097Z,15
2023-08-07T22:49:59.167Z,14
2023-08-07T22:51:56.378Z,16
2023-08-07T22:53:53.772Z,17
2023-08-07T22:55:50.918Z,14
2023-08-07T22:57:47.943Z,15
2023-08-07T22:59:45.098Z,16
2023-08-07T23:01:42.334Z,11
2023-08-07T23:03:39.619Z,17
2023-08-07T23:05:36.898Z,15
2023-08-07T23:07:34.090Z,16
2023-08-07T23:09:31.153Z,11
2023-08-07T23:11:28.203Z,17
2023-08-07T23:13:26.262Z,16
2023-08-07T23:15:23.312Z,14
2023-08-07T23:17:20.582Z,14
2023-08-07T23:19:17.992Z,15
2023-08-07T23:21:15.037Z,13
2023-08-07T23:23:12.127Z,16
2023-08-07T23:25:09.320Z,14
2023-08-07T23:27:06.369Z,17
2023-08-07T23:29:03.651Z,16
2023-08-07T23:31:00.928Z,18
2023-08-07T23:32:58.185Z,17
2023-08-07T23:34:55.414Z,13
2023-08-07T23:36:52.408Z,16
2023-08-07T23:38:49.551Z,16
2023-08-07T23:40:46.697Z,16
2023-08-07T23:42:43.790Z,15
2023-08-07T23:44:40.892Z,14
2023-08-07T23:46:38.150Z,11
2023-08-07T23:48:35.599Z,14
2023-08-07T23:50:32.760Z,25
2023-08-07T23:52:29.786Z,20
2023-08-07T23:54:26.770Z,16
2023-08-07T23:56:23.971Z,17
2023-08-07T23:58:20.859Z,16
